Time;durP1;ratioP1;P1;durP2;ratioP2;P2;SDS_P1;SDS_P2;PMS_P1;PMS_P2;Temp;Humidity;BMP_temperature;BMP_pressure;BME280_temperature;BME280_humidity;BME280_pressure;Samples;Min_cycle;Max_cycle;Signal;HPM_P1;HPM_P2
2021/03/20 00:01:55;;;;;;;29.30;9.25;;;;;;;-4.63;75.10;101500.23;1757681;81;21128;-69
2021/03/20 00:04:21;;;;;;;25.88;9.18;;;;;;;-4.67;75.13;101498.63;1760674;81;21136;-69
2021/03/20 00:06:51;;;;;;;30.57;11.28;;;;;;;-4.67;75.18;101497.33;1760869;81;21156;-69
2021/03/20 00:09:20;;;;;;;19.62;8.05;;;;;;;-4.68;75.21;101496.09;1729168;83;21251;-69
2021/03/20 00:11:46;;;;;;;34.35;10.70;;;;;;;-4.71;75.24;101495.70;1761042;81;21399;-69
2021/03/20 00:14:15;;;;;;;26.25;9.88;;;;;;;-4.70;75.28;101496.56;1701779;83;21140;-69
2021/03/20 00:16:41;;;;;;;23.22;9.05;;;;;;;-4.74;75.33;101501.02;1732239;81;21111;-69
2021/03/20 00:19:07;;;;;;;28.55;9.95;;;;;;;-4.76;75.35;101496.31;1762134;81;21459;-69
2021/03/20 00:21:33;;;;;;;21.85;9.48;;;;;;;-4.78;75.40;101503.30;1761779;81;21282;-69
2021/03/20 00:23:59;;;;;;;25.12;8.23;;;;;;;-4.78;75.44;101506.34;1761936;81;21157;-70
2021/03/20 00:26:26;;;;;;;28.65;10.20;;;;;;;-4.81;75.47;101502.09;1761236;81;21150;-70
2021/03/20 00:28:53;;;;;;;31.60;9.65;;;;;;;-4.83;75.50;101503.91;1762079;81;21532;-70
2021/03/20 00:31:19;;;;;;;32.60;11.43;;;;;;;-4.84;75.56;101502.19;1761840;81;21110;-69
2021/03/20 00:33:46;;;;;;;25.70;9.83;;;;;;;-4.84;75.59;101507.39;1761945;81;21274;-70
2021/03/20 00:36:13;;;;;;;23.87;8.53;;;;;;;-4.85;75.62;101509.58;1762017;81;21556;-70
2021/03/20 00:38:40;;;;;;;30.15;11.55;;;;;;;-4.87;75.66;101506.19;1761878;81;21095;-70
2021/03/20 00:41:08;;;;;;;40.08;12.40;;;;;;;-4.86;75.69;101513.55;1761903;80;21135;-70
2021/03/20 00:43:34;;;;;;;27.02;9.50;;;;;;;-4.86;75.72;101514.41;1761955;81;21114;-70
2021/03/20 00:46:03;;;;;;;27.45;9.43;;;;;;;-4.86;75.75;101513.55;1745456;81;22244;-70
2021/03/20 00:48:30;;;;;;;28.35;10.28;;;;;;;-4.88;75.77;101513.58;1731516;82;21158;-69
2021/03/20 00:50:57;;;;;;;31.62;9.85;;;;;;;-4.88;75.80;101518.78;1731734;82;21118;-70
2021/03/20 00:53:23;;;;;;;29.37;10.30;;;;;;;-4.89;75.83;101513.64;1731809;82;21172;-70
2021/03/20 00:55:50;;;;;;;25.02;8.78;;;;;;;-4.89;75.88;101514.94;1731590;82;21120;-69
2021/03/20 00:58:26;;;;;;;23.50;10.18;;;;;;;-4.89;75.92;101511.86;1731853;82;21178;-69
2021/03/20 01:00:59;;;;;;;23.30;8.35;;;;;;;-4.93;75.93;101508.98;1731590;82;21520;-70
2021/03/20 01:03:25;;;;;;;17.65;6.53;;;;;;;-4.94;75.99;101508.56;1732905;82;21612;-70
2021/03/20 01:05:51;;;;;;;13.83;5.20;;;;;;;-4.95;76.00;101514.66;1732170;82;21556;-69
2021/03/20 01:08:18;;;;;;;20.92;6.87;;;;;;;-4.97;76.02;101511.26;1732346;82;21140;-69
2021/03/20 01:10:44;;;;;;;24.43;6.58;;;;;;;-4.99;76.05;101513.03;1732387;82;21301;-69
2021/03/20 01:13:10;;;;;;;22.70;7.53;;;;;;;-5.03;76.08;101510.11;1732127;82;21132;-69
2021/03/20 01:15:37;;;;;;;21.10;8.10;;;;;;;-5.06;76.09;101506.30;1732172;82;21124;-69
2021/03/20 01:18:03;;;;;;;23.80;8.38;;;;;;;-5.07;76.14;101510.65;1710724;82;21152;-69
2021/03/20 01:20:29;;;;;;;17.85;7.67;;;;;;;-5.08;76.15;101509.41;1705895;82;21554;-69
2021/03/20 01:22:56;;;;;;;23.47;7.42;;;;;;;-5.09;76.18;101510.30;1719531;82;21177;-69
2021/03/20 01:25:22;;;;;;;17.32;6.58;;;;;;;-5.10;76.22;101502.08;1719368;83;21152;-69
2021/03/20 01:27:50;;;;;;;28.50;7.47;;;;;;;-5.12;76.23;101503.89;1719536;83;21076;-70
2021/03/20 01:30:22;;;;;;;24.30;8.00;;;;;;;-5.16;76.26;101508.33;1719460;83;21136;-69
2021/03/20 01:32:48;;;;;;;22.40;6.83;;;;;;;-5.17;76.31;101509.69;1719350;83;21080;-69
2021/03/20 01:35:15;;;;;;;15.85;6.40;;;;;;;-5.19;76.33;101507.56;1719358;83;22207;-70
2021/03/20 01:37:41;;;;;;;21.50;7.67;;;;;;;-5.19;76.36;101503.22;1719581;83;21581;-70
2021/03/20 01:40:08;;;;;;;15.05;7.10;;;;;;;-5.16;76.39;101504.87;1719339;83;21572;-70
2021/03/20 01:42:41;;;;;;;13.22;6.28;;;;;;;-5.18;76.41;101505.38;1719490;83;21119;-69
2021/03/20 01:45:18;;;;;;;15.53;6.95;;;;;;;-5.19;76.45;101499.77;1719568;83;21140;-69
2021/03/20 01:48:01;;;;;;;15.28;5.65;;;;;;;-5.19;76.46;101507.56;1719434;82;21202;-69
2021/03/20 01:50:42;;;;;;;13.40;6.80;;;;;;;-5.19;76.52;101504.96;1707491;82;21150;-69
2021/03/20 01:53:34;;;;;;;15.25;6.60;;;;;;;-5.17;76.51;101503.19;1702092;84;21135;-69
2021/03/20 01:56:00;;;;;;;13.55;6.20;;;;;;;-5.19;76.56;101502.36;1701789;84;21189;-70
2021/03/20 01:58:27;;;;;;;20.20;6.67;;;;;;;-5.22;76.61;101509.81;1702077;84;21127;-70
2021/03/20 02:01:01;;;;;;;15.75;6.60;;;;;;;-5.21;76.62;101506.77;1704543;84;21651;-70
2021/03/20 02:03:29;;;;;;;14.95;6.37;;;;;;;-5.21;76.65;101506.77;1701709;83;21186;-70
2021/03/20 02:05:55;;;;;;;17.95;7.22;;;;;;;-5.21;76.67;101505.47;1701683;83;21178;-70
2021/03/20 02:08:21;;;;;;;24.60;7.28;;;;;;;-5.19;76.73;101512.76;1701897;84;21609;-69
2021/03/20 02:10:48;;;;;;;17.23;6.87;;;;;;;-5.20;76.73;101512.34;1701959;84;21123;-70
2021/03/20 02:13:22;;;;;;;14.13;5.87;;;;;;;-5.21;76.75;101510.66;1701954;83;22133;-70
2021/03/20 02:15:53;;;;;;;12.75;5.58;;;;;;;-5.21;76.78;101508.06;1704141;84;21549;-70
2021/03/20 02:18:44;;;;;;;39.83;11.97;;;;;;;-5.20;76.79;101505.84;1733348;82;21159;-70
2021/03/20 02:21:26;;;;;;;26.02;7.92;;;;;;;-5.20;76.83;101509.75;1733829;82;21128;-70
2021/03/20 02:24:24;;;;;;;23.30;7.45;;;;;;;-5.21;76.85;101507.63;1733794;82;21243;-70
2021/03/20 02:27:19;;;;;;;15.63;6.78;;;;;;;-5.21;76.91;101506.77;1732403;82;21220;-70
2021/03/20 02:30:18;;;;;;;13.78;4.90;;;;;;;-5.23;76.93;101509.84;1732465;82;21147;-69
2021/03/20 02:33:02;;;;;;;13.20;5.62;;;;;;;-5.24;76.98;101512.05;1731603;82;21135;-70
2021/03/20 02:35:51;;;;;;;16.97;5.72;;;;;;;-5.28;77.01;101505.23;1731387;82;21556;-70
2021/03/20 02:38:37;;;;;;;14.90;4.85;;;;;;;-5.32;77.01;101508.36;1732415;82;21158;-69
2021/03/20 02:41:33;;;;;;;15.85;5.60;;;;;;;-5.36;77.06;101520.17;1731922;82;21196;-69
2021/03/20 02:44:24;;;;;;;17.12;5.22;;;;;;;-5.40;77.06;101516.81;1732242;82;21126;-69
2021/03/20 02:46:57;;;;;;;15.48;5.37;;;;;;;-5.41;77.07;101512.94;1691646;84;21136;-69
2021/03/20 02:49:51;;;;;;;14.15;5.45;;;;;;;-5.40;77.12;101513.36;1702762;83;21160;-69
2021/03/20 02:52:26;;;;;;;13.78;4.72;;;;;;;-5.41;77.13;101505.14;1726887;83;21571;-69
2021/03/20 02:55:17;;;;;;;13.08;5.85;;;;;;;-5.42;77.17;101508.22;1726852;83;21267;-69
2021/03/20 02:58:20;;;;;;;17.98;5.85;;;;;;;-5.43;77.21;101512.14;1726851;83;21624;-69
2021/03/20 03:01:06;;;;;;;14.53;5.45;;;;;;;-5.41;77.23;101515.54;1702710;83;21127;-70
2021/03/20 03:03:35;;;;;;;13.40;5.58;;;;;;;-5.43;77.28;101510.84;1695593;83;21667;-70
2021/03/20 03:06:34;;;;;;;19.80;7.60;;;;;;;-5.46;77.29;101513.53;1694698;83;21135;-70
2021/03/20 03:09:15;;;;;;;17.07;6.20;;;;;;;-5.44;77.34;101519.52;1658529;84;21221;-70
2021/03/20 03:11:58;;;;;;;21.15;8.45;;;;;;;-5.45;77.37;101518.67;1725127;82;21103;-70
2021/03/20 03:14:46;;;;;;;15.58;6.45;;;;;;;-5.50;77.39;101524.90;1695570;84;21185;-70
2021/03/20 03:17:12;;;;;;;12.47;5.37;;;;;;;-5.53;77.44;101523.23;1726153;83;21175;-70
2021/03/20 03:19:51;;;;;;;29.98;8.35;;;;;;;-5.56;77.44;101521.55;1695511;84;21577;-70
2021/03/20 03:22:25;;;;;;;26.90;7.90;;;;;;;-5.59;77.45;101521.64;1729091;83;21210;-70
2021/03/20 03:24:58;;;;;;;21.70;6.65;;;;;;;-5.60;77.49;101527.75;1726231;83;21519;-70
2021/03/20 03:27:25;;;;;;;19.50;7.22;;;;;;;-5.62;77.53;101532.12;1726823;81;21140;-70
2021/03/20 03:29:51;;;;;;;15.35;5.70;;;;;;;-5.64;77.52;101530.02;1726211;83;21163;-70
2021/03/20 03:32:34;;;;;;;36.68;10.78;;;;;;;-5.70;77.55;101527.56;1726080;83;21115;-70
2021/03/20 03:35:06;;;;;;;25.08;8.45;;;;;;;-5.73;77.56;101531.53;1725518;83;21335;-70
2021/03/20 03:37:43;;;;;;;19.57;6.87;;;;;;;-5.71;77.61;101539.30;1726226;83;21230;-70
2021/03/20 03:40:49;;;;;;;22.40;6.45;;;;;;;-5.74;77.66;101540.25;1725884;83;21583;-70
2021/03/20 03:43:17;;;;;;;13.98;3.85;;;;;;;-5.75;77.68;101545.02;1725977;83;21599;-69
2021/03/20 03:45:44;;;;;;;13.43;5.28;;;;;;;-5.75;77.70;101546.33;1717005;83;21168;-70
2021/03/20 03:48:10;;;;;;;13.32;4.75;;;;;;;-5.77;77.75;101541.59;1756067;81;21548;-70
2021/03/20 03:50:38;;;;;;;10.13;5.67;;;;;;;-5.76;77.77;101547.20;1724812;83;21200;-70
2021/03/20 03:53:06;;;;;;;14.70;5.12;;;;;;;-5.77;77.78;101550.69;1756294;81;21556;-68
2021/03/20 03:55:32;;;;;;;13.70;6.22;;;;;;;-5.77;77.81;101548.09;1724809;83;21167;-68
2021/03/20 03:58:31;;;;;;;13.38;5.30;;;;;;;-5.77;77.86;101551.98;1726823;81;21103;-69
2021/03/20 04:01:15;;;;;;;14.90;5.12;;;;;;;-5.76;77.87;101547.20;1665205;84;21621;-69
2021/03/20 04:03:59;;;;;;;13.30;5.50;;;;;;;-5.76;77.89;101551.10;1726082;81;21150;-70
2021/03/20 04:06:46;;;;;;;16.60;6.25;;;;;;;-5.76;77.90;101555.00;1695546;84;21184;-70
2021/03/20 04:09:33;;;;;;;11.15;4.55;;;;;;;-5.76;77.93;101554.14;1726333;83;21556;-70
2021/03/20 04:12:35;;;;;;;12.93;4.70;;;;;;;-5.75;77.97;101558.02;1695801;84;21085;-70
2021/03/20 04:15:22;;;;;;;9.48;4.25;;;;;;;-5.77;77.97;101561.08;1726184;83;21209;-69
2021/03/20 04:18:14;;;;;;;12.07;4.08;;;;;;;-5.84;77.97;101571.20;1695557;84;21593;-69
2021/03/20 04:20:48;;;;;;;12.43;4.42;;;;;;;-5.85;78.01;101580.36;1726517;83;21068;-70
2021/03/20 04:23:18;;;;;;;12.75;4.58;;;;;;;-5.89;78.06;101580.91;1726009;83;21140;-69
2021/03/20 04:26:20;;;;;;;7.00;4.03;;;;;;;-5.88;78.08;101577.88;1725135;83;21644;-69
2021/03/20 04:29:04;;;;;;;14.50;4.85;;;;;;;-5.89;78.08;101573.56;1754806;81;21249;-69
2021/03/20 04:31:40;;;;;;;14.20;4.53;;;;;;;-5.88;78.10;101576.57;1723537;83;21183;-69
2021/03/20 04:34:24;;;;;;;7.65;2.98;;;;;;;-5.91;78.12;101574.88;1725277;81;21164;-70
2021/03/20 04:36:54;;;;;;;10.43;3.90;;;;;;;-5.90;78.15;101567.50;1713454;83;21152;-69
2021/03/20 04:39:22;;;;;;;8.30;3.45;;;;;;;-5.91;78.16;101578.77;1725633;81;21105;-70
2021/03/20 04:41:50;;;;;;;8.48;3.60;;;;;;;-5.91;78.18;101575.35;1726083;81;22335;-70
2021/03/20 04:44:16;;;;;;;11.20;3.83;;;;;;;-5.91;78.21;101577.48;1747748;81;21163;-70
2021/03/20 04:46:42;;;;;;;10.03;3.40;;;;;;;-5.89;78.24;101577.02;1726513;83;21635;-70
2021/03/20 04:49:29;;;;;;;12.07;4.20;;;;;;;-5.89;78.26;101574.86;1725929;83;21161;-69
2021/03/20 04:52:01;;;;;;;10.28;3.50;;;;;;;-5.90;78.27;101583.09;1726387;83;21135;-69
2021/03/20 04:54:27;;;;;;;7.65;3.65;;;;;;;-5.91;78.31;101573.58;1755480;81;21284;-70
2021/03/20 04:57:17;;;;;;;8.10;3.67;;;;;;;-5.89;78.32;101577.02;1724581;83;21204;-70
2021/03/20 05:00:01;;;;;;;9.95;4.37;;;;;;;-5.89;78.35;101574.41;1756147;80;21215;-69
2021/03/20 05:02:34;;;;;;;8.03;5.08;;;;;;;-5.87;78.38;101576.95;1724153;82;21176;-70
2021/03/20 05:05:12;;;;;;;14.18;4.42;;;;;;;-5.83;78.41;101582.02;1699508;83;21144;-70
2021/03/20 05:07:38;;;;;;;8.35;3.70;;;;;;;-5.81;78.44;101571.16;1696022;84;21296;-69
2021/03/20 05:10:07;;;;;;;10.20;4.33;;;;;;;-5.79;78.46;101575.86;1705179;84;21183;-69
2021/03/20 05:12:33;;;;;;;7.60;2.90;;;;;;;-5.73;78.48;101579.59;1705526;84;21747;-69
2021/03/20 05:15:29;;;;;;;9.60;4.15;;;;;;;-5.68;78.53;101580.34;1705122;84;21140;-69
2021/03/20 05:17:56;;;;;;;16.77;4.78;;;;;;;-5.60;78.54;101585.34;1708089;83;21191;-69
2021/03/20 05:20:22;;;;;;;14.68;5.90;;;;;;;-5.42;78.58;101580.98;1707928;83;21203;-69
2021/03/20 05:22:49;;;;;;;13.53;4.62;;;;;;;-5.26;78.62;101589.21;1708385;83;21160;-69
2021/03/20 05:25:17;;;;;;;20.10;6.05;;;;;;;-4.88;78.71;101589.00;1708238;84;21180;-70
2021/03/20 05:27:44;;;;;;;10.13;4.65;;;;;;;-4.18;78.83;101594.72;1708080;83;21195;-70
2021/03/20 05:30:11;;;;;;;13.45;4.55;;;;;;;-3.52;78.83;101593.47;1708447;84;21077;-70
2021/03/20 05:32:37;;;;;;;12.78;5.30;;;;;;;-2.99;78.81;101592.92;1708027;84;21266;-70
2021/03/20 05:35:11;;;;;;;19.25;6.53;;;;;;;-2.45;78.85;101591.31;1708294;83;21207;-70
2021/03/20 05:37:40;;;;;;;15.32;7.22;;;;;;;-2.09;78.79;101601.66;1708210;83;21140;-70
2021/03/20 05:40:23;;;;;;;29.77;10.90;;;;;;;-1.60;78.74;101600.08;1708183;83;21561;-70
2021/03/20 05:43:28;;;;;;;24.55;8.58;;;;;;;-1.12;78.61;101598.91;1713852;83;21106;-70
2021/03/20 05:46:21;;;;;;;11.22;4.90;;;;;;;-0.75;78.45;101604.70;1679661;85;21424;-70
2021/03/20 05:49:07;;;;;;;12.15;6.30;;;;;;;-0.46;78.15;101607.32;1681025;84;21176;-71
2021/03/20 05:51:54;;;;;;;11.95;5.30;;;;;;;-0.11;77.77;101611.78;1708337;84;21199;-70
2021/03/20 05:54:58;;;;;;;17.32;7.10;;;;;;;0.20;77.38;101613.77;1708156;84;21128;-70
2021/03/20 05:57:41;;;;;;;15.75;7.17;;;;;;;0.43;76.80;101613.48;1708187;83;21155;-70
2021/03/20 06:00:41;;;;;;;12.47;6.30;;;;;;;0.23;75.83;101611.85;1708275;83;22064;-71
2021/03/20 06:03:28;;;;;;;12.35;7.25;;;;;;;-0.45;75.76;101620.33;1705250;83;21176;-71
2021/03/20 06:06:03;;;;;;;19.42;9.15;;;;;;;-0.94;75.94;101626.91;1703257;83;21250;-70
2021/03/20 06:08:52;;;;;;;25.40;8.15;;;;;;;-1.18;75.98;101620.12;1726270;83;21052;-70
2021/03/20 06:11:45;;;;;;;32.03;12.63;;;;;;;-1.14;75.97;101619.08;1726199;83;21139;-71
2021/03/20 06:14:44;;;;;;;59.90;19.30;;;;;;;-1.31;76.10;101614.56;1700334;83;21191;-71
2021/03/20 06:17:49;;;;;;;22.80;8.80;;;;;;;-1.41;76.16;101615.02;1757644;80;21065;-71
2021/03/20 06:20:47;;;;;;;73.60;29.07;;;;;;;-1.40;76.18;101618.00;1746096;80;21167;-71
2021/03/20 06:23:38;;;;;;;19.30;6.67;;;;;;;-1.38;76.17;101621.42;1725996;82;21115;-71
2021/03/20 06:26:21;;;;;;;27.20;13.98;;;;;;;-1.27;76.20;101608.74;1726341;83;21200;-71
2021/03/20 06:28:55;;;;;;;25.00;10.78;;;;;;;-1.10;76.16;101612.80;1707536;83;21997;-71
2021/03/20 06:31:41;;;;;;;28.12;10.65;;;;;;;-0.95;76.05;101602.95;1814845;77;23200;-70
2021/03/20 06:34:25;;;;;;;36.03;12.70;;;;;;;-0.99;75.93;101606.64;1788330;80;20931;-71
2021/03/20 06:37:05;;;;;;;22.42;9.48;;;;;;;-0.99;75.90;101597.94;1788253;80;21200;-71
2021/03/20 06:39:39;;;;;;;;;;;;;;;-0.84;75.89;101605.95;1785410;80;21103;-70
2021/03/20 06:42:29;;;;;;;20.95;10.78;;;;;;;-0.69;75.92;101603.11;1757101;81;20566;-71
2021/03/20 06:45:01;;;;;;;38.28;16.85;;;;;;;-0.73;75.86;101603.70;1710531;83;21032;-71
2021/03/20 06:47:29;;;;;;;62.10;25.12;;;;;;;-0.85;75.78;101595.11;1722115;83;22194;-71
2021/03/20 06:50:26;;;;;;;48.78;17.92;;;;;;;-0.83;75.67;101599.80;1721995;83;21262;-71
2021/03/20 06:52:57;;;;;;;20.57;9.45;;;;;;;-0.82;75.62;101605.44;1722097;82;21167;-71
2021/03/20 06:55:33;;;;;;;12.55;6.05;;;;;;;-0.82;75.54;101615.06;1722034;83;21124;-71
2021/03/20 06:58:13;;;;;;;29.20;12.75;;;;;;;-0.79;75.51;101615.77;1721855;83;21565;-71
2021/03/20 07:00:40;;;;;;;64.30;24.57;;;;;;;-0.71;75.42;101617.60;1710035;83;21568;-71
2021/03/20 07:04:01;;;;;;;29.77;14.50;;;;;;;-0.65;75.27;101626.48;1721894;83;21207;-71
2021/03/20 07:06:50;;;;;;;32.40;13.75;;;;;;;-0.55;75.25;101629.08;1720270;83;21140;-71
2021/03/20 07:09:17;;;;;;;21.82;10.30;;;;;;;-0.55;75.17;101618.59;1722220;83;21123;-70
2021/03/20 07:12:12;;;;;;;13.43;6.10;;;;;;;-0.37;75.09;101625.23;1721930;83;21148;-70
2021/03/20 07:14:54;;;;;;;14.80;7.20;;;;;;;-0.32;75.03;101625.88;1722010;83;21114;-70
2021/03/20 07:17:35;;;;;;;18.45;8.08;;;;;;;-0.31;74.90;101623.63;1718915;83;21269;-70
2021/03/20 07:20:15;;;;;;;16.85;7.70;;;;;;;-0.16;74.78;101630.79;1704051;82;21205;-71
2021/03/20 07:22:45;;;;;;;14.10;7.10;;;;;;;-0.16;74.66;101624.23;1704427;83;21176;-71
2021/03/20 07:25:34;;;;;;;18.48;8.60;;;;;;;-0.13;74.57;101624.09;1704042;84;21143;-71
2021/03/20 07:28:07;;;;;;;19.07;8.08;;;;;;;-0.08;74.47;101629.98;1704092;84;21132;-71
2021/03/20 07:31:00;;;;;;;26.07;12.30;;;;;;;-0.04;74.37;101631.54;1703408;83;21201;-71
2021/03/20 07:33:34;;;;;;;16.82;5.28;;;;;;;-0.06;74.20;101634.22;1706197;83;21133;-71
2021/03/20 07:36:31;;;;;;;21.27;8.95;;;;;;;-0.08;74.08;101636.53;1705510;83;21602;-71
2021/03/20 07:39:20;;;;;;;49.65;19.55;;;;;;;0.01;74.06;101640.02;1709385;82;21204;-71
2021/03/20 07:41:59;;;;;;;22.58;9.83;;;;;;;0.11;73.95;101633.41;1672864;84;21172;-71
2021/03/20 07:44:30;;;;;;;19.27;7.87;;;;;;;0.04;73.78;101641.18;1662144;84;21306;-71
2021/03/20 07:46:57;;;;;;;46.28;19.45;;;;;;;0.01;73.68;101642.64;1658595;85;21595;-71
2021/03/20 07:49:28;;;;;;;18.15;7.70;;;;;;;0.06;73.49;101641.98;1679460;84;21161;-71
2021/03/20 07:52:02;;;;;;;25.17;10.35;;;;;;;0.09;73.42;101643.14;1676491;84;21124;-71
2021/03/20 07:54:35;;;;;;;30.30;11.93;;;;;;;0.19;73.30;101641.77;1676243;84;21731;-71
2021/03/20 07:57:09;;;;;;;21.10;7.53;;;;;;;0.23;73.20;101655.13;1674207;84;21231;-71
2021/03/20 07:59:43;;;;;;;24.77;11.90;;;;;;;0.25;73.18;101657.20;1662081;84;21173;-72
2021/03/20 08:02:13;;;;;;;23.55;9.50;;;;;;;0.25;73.12;101657.20;1655383;84;21210;-72
2021/03/20 08:04:53;;;;;;;38.50;16.37;;;;;;;0.25;73.04;101662.45;1648431;86;25800;-72
2021/03/20 08:07:40;;;;;;;71.80;35.80;;;;;;;0.23;72.93;101661.69;1668907;84;21179;-72
2021/03/20 08:10:32;;;;;;;43.45;18.15;;;;;;;0.10;72.82;101667.59;1662167;84;21282;-72
2021/03/20 08:13:15;;;;;;;32.08;13.80;;;;;;;-0.04;72.67;101669.55;1653359;84;21179;-71
2021/03/20 08:15:45;;;;;;;35.20;11.95;;;;;;;-0.36;72.56;101672.80;1694058;83;21191;-72
2021/03/20 08:18:17;;;;;;;;;;;;;;;-0.36;72.56;101671.48;1684112;84;21683;-72
2021/03/20 08:21:16;;;;;;;16.40;7.90;;;;;;;-0.13;72.46;101676.06;1694548;84;20257;-72
2021/03/20 08:23:57;;;;;;;30.37;9.70;;;;;;;-0.15;72.35;101680.99;1620709;85;21271;-71
2021/03/20 08:27:02;;;;;;;24.65;10.10;;;;;;;0.03;72.33;101677.52;1685829;84;21192;-72
2021/03/20 08:29:39;;;;;;;30.52;10.55;;;;;;;0.25;72.28;101674.72;1691504;84;21212;-72
2021/03/20 08:32:20;;;;;;;23.85;9.98;;;;;;;0.23;72.12;101677.43;1661819;85;21180;-72
2021/03/20 08:35:33;;;;;;;33.02;10.40;;;;;;;0.30;72.01;101670.97;1648212;84;21167;-72
2021/03/20 08:38:44;;;;;;;17.32;7.80;;;;;;;0.40;71.98;101666.98;1667108;84;21404;-71
2021/03/20 08:41:34;;;;;;;22.62;9.03;;;;;;;0.47;71.84;101655.25;1681214;84;21603;-72
2021/03/20 08:44:35;;;;;;;25.65;10.43;;;;;;;0.30;71.78;101657.85;1661741;84;27819;-72
2021/03/20 08:47:22;;;;;;;34.85;7.92;;;;;;;0.05;71.64;101657.31;1674833;84;21634;-72
2021/03/20 08:50:18;;;;;;;16.93;6.50;;;;;;;0.16;71.62;101666.84;1686448;84;21176;-71
2021/03/20 08:53:30;;;;;;;13.90;5.80;;;;;;;0.19;71.53;101673.25;1684208;84;22157;-71
2021/03/20 08:56:23;;;;;;;13.95;6.28;;;;;;;0.28;71.45;101671.48;1692718;84;21217;-73
2021/03/20 08:59:13;;;;;;;16.12;6.53;;;;;;;0.57;71.34;101666.60;1690177;84;21176;-71
2021/03/20 09:01:56;;;;;;;28.23;11.12;;;;;;;0.75;71.22;101676.20;1679950;84;21197;-71
2021/03/20 09:04:29;;;;;;;17.95;7.62;;;;;;;0.47;71.01;101681.50;1615281;87;21178;-71
2021/03/20 09:07:06;;;;;;;18.85;6.58;;;;;;;0.22;70.93;101676.17;1639191;84;21227;-72
2021/03/20 09:09:50;;;;;;;11.33;5.33;;;;;;;0.17;70.92;101679.50;1697935;83;21187;-72
2021/03/20 09:12:39;;;;;;;31.37;12.07;;;;;;;0.20;70.94;101680.20;1688620;84;21164;-71
2021/03/20 09:15:09;;;;;;;23.27;8.90;;;;;;;0.35;70.93;101679.94;1689764;83;21223;-71
2021/03/20 09:17:38;;;;;;;16.30;5.75;;;;;;;0.43;70.77;101681.25;1673334;84;25688;-71
2021/03/20 09:20:44;;;;;;;16.87;7.45;;;;;;;0.49;70.68;101682.26;1658612;84;21632;-72
2021/03/20 09:23:19;;;;;;;22.60;8.28;;;;;;;0.47;70.55;101681.50;1667527;83;21218;-71
2021/03/20 09:25:45;;;;;;;40.78;14.40;;;;;;;0.53;70.45;101680.34;1686747;83;21897;-72
2021/03/20 09:28:16;;;;;;;14.28;5.95;;;;;;;0.61;70.36;101674.72;1685940;83;21780;-71
2021/03/20 09:30:47;;;;;;;18.80;8.53;;;;;;;0.70;70.31;101679.53;1679198;83;21167;-72
2021/03/20 09:33:22;;;;;;;20.92;9.93;;;;;;;0.59;70.16;101679.20;1700333;83;21296;-71
2021/03/20 09:35:51;;;;;;;25.68;11.00;;;;;;;0.63;70.15;101676.83;1674394;83;21191;-71
2021/03/20 09:38:42;;;;;;;49.77;24.53;;;;;;;0.75;70.00;101673.58;1678049;85;21208;-71
2021/03/20 09:41:16;;;;;;;16.35;6.20;;;;;;;0.82;69.86;101686.33;1695723;83;21175;-72
2021/03/20 09:44:02;;;;;;;18.17;7.25;;;;;;;0.90;69.64;101681.55;1681411;83;21184;-71
2021/03/20 09:46:44;;;;;;;10.88;5.17;;;;;;;1.00;69.57;101678.84;1638844;83;21294;-72
2021/03/20 09:49:16;;;;;;;21.40;5.92;;;;;;;1.13;69.35;101681.69;1679397;83;21233;-71
2021/03/20 09:51:57;;;;;;;18.25;5.05;;;;;;;1.12;69.15;101676.06;1688225;83;21620;-71
2021/03/20 09:57:28;;;;;;;9.05;3.98;;;;;;;1.19;68.66;101673.97;1836159;77;22837;-72
2021/03/20 09:59:54;;;;;;;19.87;5.30;;;;;;;1.21;68.48;101674.27;1798145;78;21529;-72
2021/03/20 10:02:27;;;;;;;12.23;5.22;;;;;;;1.25;68.35;101680.22;1786914;78;21253;-71
2021/03/20 10:04:59;;;;;;;16.87;6.62;;;;;;;1.30;68.15;101671.16;1784809;80;21234;-71
2021/03/20 10:07:35;;;;;;;11.08;4.47;;;;;;;1.36;67.92;101674.80;1813403;78;21182;-72
2021/03/20 10:10:16;;;;;;;10.30;3.45;;;;;;;1.29;67.62;101677.36;1813361;78;21210;-72
2021/03/20 10:12:50;;;;;;;14.00;5.92;;;;;;;1.33;67.35;101677.59;1802575;78;21174;-72
2021/03/20 10:15:35;;;;;;;23.52;8.50;;;;;;;1.41;67.16;101676.70;1790601;78;21239;-72
2021/03/20 10:18:16;;;;;;;12.50;4.85;;;;;;;1.42;66.88;101681.03;1792204;78;21231;-72
2021/03/20 10:20:55;;;;;;;23.83;6.62;;;;;;;1.55;66.71;101675.16;1799657;78;21163;-72
2021/03/20 10:23:47;;;;;;;8.18;3.27;;;;;;;1.60;66.57;101669.16;1803544;78;21163;-72
2021/03/20 10:26:31;;;;;;;13.22;5.50;;;;;;;1.58;66.39;101661.84;1789193;80;21208;-72
2021/03/20 10:29:04;;;;;;;13.18;5.03;;;;;;;1.58;66.20;101661.84;1806391;78;21363;-72
2021/03/20 10:31:43;;;;;;;8.55;3.15;;;;;;;1.61;66.01;101668.25;1805717;78;21199;-71
2021/03/20 10:34:15;;;;;;;9.13;4.22;;;;;;;1.46;65.83;101672.06;1818818;78;21183;-72
2021/03/20 10:36:44;;;;;;;5.12;2.60;;;;;;;1.34;65.61;101677.09;1814378;78;21591;-71
2021/03/20 10:39:31;;;;;;;12.05;4.10;;;;;;;1.31;65.43;101678.11;1788420;78;21128;-71
2021/03/20 10:42:02;;;;;;;4.62;2.58;;;;;;;1.21;65.19;101673.41;1795152;78;22089;-72
2021/03/20 10:44:39;;;;;;;6.37;3.10;;;;;;;1.10;64.99;101670.02;1816297;77;21187;-71
2021/03/20 10:47:13;;;;;;;16.85;6.05;;;;;;;1.19;64.81;101668.26;1814794;77;21278;-71
2021/03/20 10:49:51;;;;;;;18.48;7.60;;;;;;;1.16;64.62;101662.31;1821353;78;21152;-71
2021/03/20 10:52:20;;;;;;;18.20;7.78;;;;;;;1.11;64.49;101657.28;1811085;77;21263;-71
2021/03/20 10:54:50;;;;;;;11.28;3.42;;;;;;;1.08;64.31;101664.02;1804541;77;21207;-71
2021/03/20 10:57:20;;;;;;;4.70;2.60;;;;;;;1.07;64.17;101660.99;1793713;77;21143;-72
2021/03/20 10:59:47;;;;;;;9.93;2.72;;;;;;;1.11;64.01;101659.91;1787171;78;21151;-71
2021/03/20 11:02:35;;;;;;;7.47;3.35;;;;;;;1.19;63.95;101657.75;1787675;79;21147;-72
2021/03/20 11:05:24;;;;;;;7.90;3.52;;;;;;;1.36;63.87;101653.77;1790767;79;21653;-71
2021/03/20 11:08:00;;;;;;;15.55;6.12;;;;;;;1.56;63.81;101642.66;1792275;79;22076;-72
2021/03/20 11:10:40;;;;;;;10.82;3.67;;;;;;;1.80;63.71;101642.64;1786249;78;21139;-72
2021/03/20 11:13:11;;;;;;;20.68;7.47;;;;;;;1.77;63.50;101639.72;1787261;78;21112;-72
2021/03/20 11:15:37;;;;;;;4.72;1.70;;;;;;;1.58;63.19;101636.41;1786018;78;21135;-71
2021/03/20 11:18:09;;;;;;;5.00;2.87;;;;;;;1.38;62.88;101641.85;1784353;79;21490;-71
2021/03/20 11:20:38;;;;;;;11.18;3.50;;;;;;;1.30;62.73;101636.99;1793504;79;21656;-72
2021/03/20 11:23:06;;;;;;;6.25;2.37;;;;;;;1.30;62.56;101636.99;1798139;79;21132;-72
2021/03/20 11:25:37;;;;;;;12.33;3.15;;;;;;;1.34;62.37;101625.39;1789670;80;21171;-72
2021/03/20 11:28:11;;;;;;;16.25;5.58;;;;;;;1.44;62.25;101616.09;1786085;79;21147;-71
2021/03/20 11:30:47;;;;;;;15.15;6.55;;;;;;;1.53;62.09;101624.42;1783767;79;21182;-72
2021/03/20 11:33:18;;;;;;;42.10;10.68;;;;;;;1.47;61.93;101618.58;1790079;79;21687;-72
2021/03/20 11:35:48;;;;;;;9.48;4.10;;;;;;;1.46;61.82;101614.70;1794494;79;21083;-72
2021/03/20 11:38:15;;;;;;;10.77;3.80;;;;;;;1.54;61.73;101612.98;1791886;79;21160;-72
2021/03/20 11:40:45;;;;;;;10.55;3.95;;;;;;;1.47;61.57;101617.73;1788065;80;21639;-72
2021/03/20 11:43:31;;;;;;;17.25;6.45;;;;;;;1.48;61.46;101622.88;1788930;80;21219;-72
2021/03/20 11:46:23;;;;;;;7.65;2.58;;;;;;;1.58;61.35;101607.95;1788153;79;21205;-71
2021/03/20 11:49:02;;;;;;;13.90;5.80;;;;;;;1.62;61.23;101610.31;1783951;80;21100;-72
2021/03/20 11:51:36;;;;;;;12.82;5.28;;;;;;;1.62;61.12;101601.60;1793436;79;21144;-72
2021/03/20 11:54:06;;;;;;;27.77;9.15;;;;;;;1.60;60.96;101602.98;1791122;80;21140;-72
2021/03/20 11:56:38;;;;;;;25.75;6.85;;;;;;;1.63;60.90;101601.95;1801837;77;21156;-72
2021/03/20 11:59:08;;;;;;;21.07;7.58;;;;;;;1.61;60.81;101597.27;1806756;77;21250;-72
2021/03/20 12:01:40;;;;;;;13.72;6.22;;;;;;;1.60;60.78;101596.88;1764776;79;21163;-72
2021/03/20 12:04:17;;;;;;;30.00;9.33;;;;;;;1.64;60.78;101592.69;1741988;80;21113;-72
2021/03/20 12:06:43;;;;;;;6.50;2.35;;;;;;;1.77;60.77;101594.16;1756260;81;21124;-72
2021/03/20 12:09:28;;;;;;;9.65;4.25;;;;;;;1.78;60.67;101588.84;1786460;80;21120;-72
2021/03/20 12:11:55;;;;;;;13.48;4.08;;;;;;;1.58;60.46;101593.49;1793435;80;22104;-72